Time;durP1;ratioP1;P1;durP2;ratioP2;P2;SDS_P1;SDS_P2;PMS_P1;PMS_P2;Temp;Humidity;BMP_temperature;BMP_pressure;BME280_temperature;BME280_humidity;BME280_pressure;Samples;Min_cycle;Max_cycle;Signal;HPM_P1;HPM_P2
2022/09/13 00:01:37;;;;;;;4.78;1.73;;;;;;;17.61;43.19;98567.47;4487176;32;20112;-82
2022/09/13 00:04:03;;;;;;;6.68;1.87;;;;;;;17.63;43.11;98562.00;4487343;32;20084;-82
2022/09/13 00:06:29;;;;;;;5.47;1.90;;;;;;;17.58;43.11;98564.25;4487494;32;20120;-82
2022/09/13 00:08:54;;;;;;;8.60;2.45;;;;;;;17.57;43.05;98574.03;4473248;32;20471;-83
2022/09/13 00:11:22;;;;;;;7.00;2.37;;;;;;;17.56;43.22;98571.50;4487273;32;20383;-82
2022/09/13 00:13:48;;;;;;;5.18;2.00;;;;;;;17.58;43.17;98570.41;4473283;32;20560;-82
2022/09/13 00:16:15;;;;;;;5.62;2.03;;;;;;;17.58;43.13;98574.91;4487383;32;20096;-82
2022/09/13 00:18:41;;;;;;;4.72;1.80;;;;;;;17.57;42.91;98576.72;4460365;32;20123;-83
2022/09/13 00:21:10;;;;;;;6.15;1.92;;;;;;;17.55;42.97;98575.16;4473269;32;20085;-83
2022/09/13 00:23:36;;;;;;;5.03;1.87;;;;;;;17.52;43.02;98564.75;4487422;32;20149;-82
2022/09/13 00:26:06;;;;;;;6.43;1.90;;;;;;;17.44;43.43;98566.28;4487545;32;20096;-83
2022/09/13 00:28:32;;;;;;;5.95;2.15;;;;;;;17.47;43.39;98565.19;4487331;32;20092;-83
2022/09/13 00:31:02;;;;;;;6.25;2.10;;;;;;;17.45;43.66;98567.97;4487291;32;20149;-83
2022/09/13 00:33:28;;;;;;;6.18;2.03;;;;;;;17.41;43.85;98566.53;4487148;32;20084;-83
2022/09/13 00:35:53;;;;;;;6.75;2.55;;;;;;;17.38;43.93;98561.47;4472828;32;20127;-84
2022/09/13 00:38:19;;;;;;;5.22;2.05;;;;;;;17.42;43.97;98560.25;4487190;32;20140;-83
2022/09/13 00:40:44;;;;;;;7.30;2.20;;;;;;;17.40;44.47;98564.88;4472735;32;20115;-83
2022/09/13 00:43:37;;;;;;;6.12;1.83;;;;;;;17.43;44.57;98563.75;4487206;32;20129;-82
2022/09/13 00:46:03;;;;;;;7.07;2.00;;;;;;;17.44;44.70;98558.31;4472846;32;20108;-83
2022/09/13 00:48:28;;;;;;;7.65;2.28;;;;;;;17.42;44.68;98556.72;4473226;32;20116;-83
2022/09/13 00:50:55;;;;;;;7.07;1.90;;;;;;;17.42;44.88;98557.59;4487289;32;20080;-82
2022/09/13 00:53:29;;;;;;;6.75;2.17;;;;;;;17.42;45.27;98559.41;4473124;32;20108;-81
2022/09/13 00:56:17;;;;;;;9.70;2.05;;;;;;;17.40;45.33;98566.69;4473059;32;20454;-81
2022/09/13 00:58:53;;;;;;;6.57;2.33;;;;;;;17.35;45.31;98552.94;4471704;32;20112;-81
2022/09/13 01:01:20;;;;;;;4.82;2.00;;;;;;;17.33;45.32;98552.22;4472550;32;20163;-81
2022/09/13 01:03:46;;;;;;;7.55;2.58;;;;;;;17.34;45.29;98556.56;4473130;32;20394;-81
2022/09/13 01:06:19;;;;;;;7.18;2.40;;;;;;;17.34;45.56;98561.88;4472915;32;20112;-81
2022/09/13 01:08:47;;;;;;;6.05;2.25;;;;;;;17.29;45.78;98560.47;4473093;32;20760;-81
2022/09/13 01:11:22;;;;;;;6.47;2.33;;;;;;;17.28;45.86;98561.44;4487239;32;20473;-81
2022/09/13 01:13:47;;;;;;;5.12;2.00;;;;;;;17.28;45.89;98566.75;4472787;32;20127;-81
2022/09/13 01:16:13;;;;;;;8.20;2.37;;;;;;;17.24;46.10;98560.00;4472761;32;20116;-82
2022/09/13 01:18:38;;;;;;;7.00;2.30;;;;;;;17.04;46.07;98559.06;4486881;32;20088;-81
2022/09/13 01:21:46;;;;;;;5.93;2.00;;;;;;;17.13;45.79;98562.75;4486866;32;20127;-81
2022/09/13 01:24:11;;;;;;;6.53;2.03;;;;;;;17.12;45.49;98560.22;4486293;32;20088;-81
2022/09/13 01:27:04;;;;;;;7.30;2.25;;;;;;;17.10;45.37;98552.37;4486727;32;20132;-81
2022/09/13 01:29:56;;;;;;;7.68;2.22;;;;;;;17.08;45.18;98552.50;4472455;32;20108;-81
2022/09/13 01:32:43;;;;;;;7.18;2.37;;;;;;;17.05;45.01;98546.59;4422662;32;20140;-82
2022/09/13 01:35:24;;;;;;;6.40;2.20;;;;;;;17.13;45.46;98552.09;4422495;32;20105;-81
2022/09/13 01:37:56;;;;;;;6.87;2.28;;;;;;;17.09;46.15;98543.56;4422433;32;20188;-81
2022/09/13 01:40:35;;;;;;;6.28;2.17;;;;;;;17.08;46.22;98549.84;4409716;32;20125;-82
2022/09/13 01:43:04;;;;;;;5.28;2.03;;;;;;;17.10;45.87;98547.03;4422408;32;20136;-81
2022/09/13 01:45:42;;;;;;;6.45;2.20;;;;;;;17.06;45.67;98543.81;4422336;32;20098;-82
2022/09/13 01:48:24;;;;;;;7.28;2.30;;;;;;;17.09;45.71;98548.88;4409563;32;20114;-82
2022/09/13 01:51:06;;;;;;;5.10;1.98;;;;;;;17.11;45.47;98543.41;4422305;32;20117;-81
2022/09/13 01:53:52;;;;;;;6.70;2.30;;;;;;;17.07;45.65;98540.19;4422302;32;20425;-82
2022/09/13 01:56:42;;;;;;;5.35;1.73;;;;;;;17.10;45.76;98539.06;4422199;32;20136;-82
2022/09/13 01:59:23;;;;;;;7.20;2.00;;;;;;;17.12;45.74;98542.44;4409355;32;20117;-82
2022/09/13 02:01:56;;;;;;;6.80;2.12;;;;;;;17.08;45.80;98541.84;4409205;32;20436;-81
2022/09/13 02:04:34;;;;;;;5.90;2.00;;;;;;;17.03;45.80;98541.38;4409255;32;20679;-81
2022/09/13 02:06:59;;;;;;;7.45;2.10;;;;;;;17.02;45.81;98538.88;4409556;32;20472;-82
2022/09/13 02:09:26;;;;;;;5.65;2.08;;;;;;;16.99;45.40;98539.97;4462687;32;20146;-82
2022/09/13 02:11:58;;;;;;;6.43;2.17;;;;;;;17.03;45.37;98538.72;4491606;32;20165;-82
2022/09/13 02:14:29;;;;;;;7.72;2.40;;;;;;;16.99;45.21;98534.62;4477513;32;20092;-82
2022/09/13 02:17:02;;;;;;;7.07;2.00;;;;;;;17.01;45.18;98531.84;4477224;32;20084;-82
2022/09/13 02:19:40;;;;;;;6.53;2.10;;;;;;;17.02;45.26;98533.56;4463984;32;20119;-82
2022/09/13 02:22:07;;;;;;;5.85;2.10;;;;;;;16.95;45.50;98530.56;4477281;32;20578;-82
2022/09/13 02:24:35;;;;;;;7.15;2.60;;;;;;;16.95;45.43;98533.22;4491269;32;20106;-82
2022/09/13 02:27:05;;;;;;;7.07;2.10;;;;;;;16.95;45.23;98533.22;4477142;32;20092;-82
2022/09/13 02:29:32;;;;;;;5.37;2.03;;;;;;;16.97;45.06;98522.44;4477148;32;20180;-82
2022/09/13 02:32:03;;;;;;;7.70;2.12;;;;;;;16.93;45.20;98526.34;4491280;32;20431;-82
2022/09/13 02:34:37;;;;;;;6.25;2.10;;;;;;;16.95;45.28;98522.56;4463942;32;20155;-82
2022/09/13 02:37:03;;;;;;;5.85;1.98;;;;;;;16.92;45.73;98525.53;4476967;32;20164;-82
2022/09/13 02:39:31;;;;;;;6.68;2.20;;;;;;;16.82;45.43;98513.94;4476756;32;20101;-82
2022/09/13 02:42:05;;;;;;;6.90;2.10;;;;;;;16.78;45.22;98518.66;4491153;32;20116;-82
2022/09/13 02:44:40;;;;;;;7.47;2.17;;;;;;;16.87;45.14;98514.41;4491200;32;20100;-82
2022/09/13 02:47:23;;;;;;;7.57;2.20;;;;;;;16.85;44.99;98514.53;4463924;32;20530;-82
2022/09/13 02:50:07;;;;;;;6.85;2.15;;;;;;;16.87;44.78;98525.06;4490952;32;20143;-83
2022/09/13 02:52:38;;;;;;;6.28;2.12;;;;;;;16.83;44.64;98518.31;4491003;32;20096;-82
2022/09/13 02:55:19;;;;;;;7.62;2.12;;;;;;;16.80;44.60;98513.19;4490883;32;20084;-82
2022/09/13 02:58:15;;;;;;;7.37;1.90;;;;;;;16.64;45.16;98517.16;4491041;32;20130;-83
2022/09/13 03:00:40;;;;;;;5.93;2.20;;;;;;;16.74;45.10;98513.72;4490646;32;20229;-82
2022/09/13 03:03:09;;;;;;;6.80;2.03;;;;;;;16.77;45.27;98509.00;4476679;32;20428;-82
2022/09/13 03:05:34;;;;;;;5.55;1.87;;;;;;;16.82;45.35;98512.13;4476493;32;20142;-82
2022/09/13 03:08:00;;;;;;;5.60;2.00;;;;;;;16.85;45.44;98511.03;4463452;32;20089;-82
2022/09/13 03:10:30;;;;;;;6.97;2.12;;;;;;;16.83;45.26;98502.34;4490696;32;20096;-82
2022/09/13 03:13:33;;;;;;;7.53;2.00;;;;;;;16.77;45.12;98509.00;4463818;32;20530;-83
2022/09/13 03:16:05;;;;;;;7.62;2.28;;;;;;;16.81;44.78;98502.44;4490851;32;20205;-82
2022/09/13 03:18:31;;;;;;;7.70;2.20;;;;;;;16.84;44.87;98496.91;4476670;32;20104;-83
2022/09/13 03:21:47;;;;;;;7.00;2.10;;;;;;;16.82;45.02;98501.47;4487962;32;20397;-83
2022/09/13 03:24:42;;;;;;;7.75;2.12;;;;;;;16.77;45.21;98495.69;4423381;32;20117;-81
2022/09/13 03:27:23;;;;;;;5.70;1.90;;;;;;;16.77;45.23;98494.88;4408195;32;20125;-81
2022/09/13 03:29:48;;;;;;;5.90;2.10;;;;;;;16.77;45.28;98494.88;4423246;32;20769;-81
2022/09/13 03:32:45;;;;;;;6.20;2.30;;;;;;;16.81;45.45;98496.28;4423383;32;20114;-83
2022/09/13 03:35:34;;;;;;;6.20;2.15;;;;;;;16.83;45.88;98494.38;4423263;32;20166;-83
2022/09/13 03:38:14;;;;;;;7.70;2.50;;;;;;;16.80;45.97;98490.09;4423358;32;20119;-83
2022/09/13 03:41:06;;;;;;;7.80;2.08;;;;;;;16.77;46.20;98493.03;4410504;32;20094;-83
2022/09/13 03:43:42;;;;;;;6.97;2.30;;;;;;;16.68;46.05;98484.00;4422965;32;20520;-82
2022/09/13 03:46:13;;;;;;;6.25;2.40;;;;;;;16.72;46.25;98484.59;4410818;32;20123;-82
2022/09/13 03:48:39;;;;;;;6.72;2.33;;;;;;;16.66;46.42;98480.62;4410795;32;20117;-82
2022/09/13 03:51:06;;;;;;;9.55;2.97;;;;;;;16.66;46.46;98480.62;4410552;32;20153;-82
2022/09/13 03:53:35;;;;;;;6.75;2.22;;;;;;;16.55;46.56;98485.19;4410503;32;20469;-82
2022/09/13 03:56:00;;;;;;;7.20;2.33;;;;;;;16.61;46.75;98482.00;4410664;32;20106;-82
2022/09/13 03:58:26;;;;;;;7.75;2.70;;;;;;;16.60;46.90;98488.31;4423048;32;20117;-82
2022/09/13 04:00:53;;;;;;;9.07;2.85;;;;;;;16.59;47.21;98479.47;4444946;32;20080;-82
2022/09/13 04:03:18;;;;;;;9.37;2.80;;;;;;;16.56;47.31;98481.56;4487498;32;20135;-82
2022/09/13 04:05:44;;;;;;;9.60;2.65;;;;;;;16.55;47.34;98483.34;4487379;32;20096;-82
2022/09/13 04:08:10;;;;;;;7.50;2.40;;;;;;;16.57;47.24;98485.88;4487476;32;20118;-82
2022/09/13 04:10:36;;;;;;;8.20;2.70;;;;;;;16.54;47.33;98487.00;4487215;32;20120;-82
2022/09/13 04:13:02;;;;;;;6.72;2.70;;;;;;;16.47;47.54;98486.66;4487409;32;20108;-81
2022/09/13 04:15:29;;;;;;;9.15;2.70;;;;;;;16.27;47.67;98490.16;4487597;32;20376;-82
2022/09/13 04:17:55;;;;;;;7.82;2.53;;;;;;;16.35;47.70;98490.34;4487529;32;20119;-82
2022/09/13 04:20:20;;;;;;;8.73;2.47;;;;;;;16.35;47.74;98479.72;4487485;32;20087;-83
2022/09/13 04:22:53;;;;;;;6.22;2.15;;;;;;;16.32;47.53;98482.59;4487383;32;20431;-82
2022/09/13 04:25:20;;;;;;;8.13;2.50;;;;;;;16.29;47.53;98489.03;4487556;32;20100;-82
2022/09/13 04:27:45;;;;;;;6.15;2.28;;;;;;;16.29;47.70;98486.38;4487284;32;20084;-84
2022/09/13 04:30:11;;;;;;;6.75;2.20;;;;;;;16.37;47.68;98482.25;4487209;32;20202;-84
2022/09/13 04:32:37;;;;;;;5.97;2.30;;;;;;;16.27;47.95;98483.00;4487023;32;20092;-83
2022/09/13 04:35:02;;;;;;;6.05;2.20;;;;;;;16.23;48.18;98481.56;4487231;32;20096;-83
2022/09/13 04:37:28;;;;;;;9.88;2.45;;;;;;;16.39;47.75;98478.47;4487151;32;20104;-81
2022/09/13 04:39:53;;;;;;;8.88;2.22;;;;;;;16.44;47.85;98480.78;4487153;32;20081;-82
2022/09/13 04:42:19;;;;;;;6.47;2.20;;;;;;;16.47;47.96;98480.50;4487330;32;20131;-81
2022/09/13 04:44:44;;;;;;;5.62;2.03;;;;;;;16.54;47.35;98479.03;4487463;32;20088;-83
2022/09/13 04:47:10;;;;;;;7.00;2.20;;;;;;;16.66;46.85;98477.97;4487324;32;20119;-84
2022/09/13 04:49:36;;;;;;;5.68;2.10;;;;;;;16.51;46.92;98477.47;4460071;32;20110;-83
2022/09/13 04:52:02;;;;;;;6.10;2.08;;;;;;;16.67;46.45;98477.00;4487370;32;20481;-84
2022/09/13 04:54:27;;;;;;;7.43;2.30;;;;;;;16.88;46.00;98471.72;4473028;32;20120;-83
2022/09/13 04:56:54;;;;;;;6.93;2.37;;;;;;;16.98;45.82;98477.09;4473064;32;20127;-82
2022/09/13 04:59:19;;;;;;;6.37;1.98;;;;;;;17.15;45.20;98477.44;4487300;32;20114;-81
2022/09/13 05:01:45;;;;;;;7.72;2.42;;;;;;;17.21;45.28;98477.75;4486737;32;20109;-80
2022/09/13 05:04:10;;;;;;;7.35;2.05;;;;;;;17.38;45.03;98480.75;4472771;32;20120;-81
2022/09/13 05:06:36;;;;;;;5.60;2.10;;;;;;;17.40;44.82;98485.00;4472642;32;20080;-81
2022/09/13 05:09:03;;;;;;;6.87;2.35;;;;;;;17.13;45.01;98482.88;4486993;32;20123;-82
2022/09/13 05:11:29;;;;;;;5.25;1.80;;;;;;;17.55;44.30;98484.59;4487051;32;20151;-83
2022/09/13 05:13:57;;;;;;;6.22;1.90;;;;;;;17.76;43.83;98484.53;4472628;32;20096;-83
2022/09/13 05:16:24;;;;;;;5.15;1.70;;;;;;;17.85;43.57;98489.06;4486922;32;20092;-82
2022/09/13 05:18:50;;;;;;;5.60;2.20;;;;;;;18.08;43.23;98487.84;4472695;32;20137;-82
2022/09/13 05:21:17;;;;;;;7.62;2.08;;;;;;;17.87;43.22;98479.13;4486755;32;20398;-82
2022/09/13 05:23:43;;;;;;;5.22;2.10;;;;;;;17.83;43.35;98485.69;4472801;32;20092;-82
2022/09/13 05:26:08;;;;;;;7.50;2.10;;;;;;;18.13;42.72;98498.06;4486757;32;20141;-82
2022/09/13 05:28:35;;;;;;;6.45;2.03;;;;;;;18.15;42.25;98496.12;4472606;32;20157;-82
2022/09/13 05:31:07;;;;;;;6.07;1.92;;;;;;;18.15;42.45;98497.94;4486849;32;20465;-82
2022/09/13 05:33:36;;;;;;;4.72;2.00;;;;;;;17.95;42.29;98494.44;4472490;32;20088;-81
2022/09/13 05:36:02;;;;;;;6.40;2.00;;;;;;;18.53;41.78;98483.78;4486795;32;20467;-82
2022/09/13 05:38:28;;;;;;;7.03;2.28;;;;;;;18.62;41.69;98492.75;4472400;32;20408;-83
2022/09/13 05:40:58;;;;;;;6.60;1.92;;;;;;;18.98;42.23;98487.66;4486532;32;20145;-83
2022/09/13 05:43:26;;;;;;;4.47;1.62;;;;;;;18.69;41.81;98488.53;4458666;32;20092;-82
2022/09/13 05:45:59;;;;;;;5.95;1.90;;;;;;;18.89;40.82;98484.06;4486660;32;20444;-83
2022/09/13 05:48:24;;;;;;;4.47;1.75;;;;;;;19.05;40.72;98488.78;4472466;32;20148;-84
2022/09/13 05:50:50;;;;;;;7.93;2.40;;;;;;;19.26;39.67;98475.22;4486653;32;20096;-82
2022/09/13 05:53:15;;;;;;;9.48;2.35;;;;;;;19.50;40.38;98490.72;4486573;32;20119;-83
2022/09/13 05:55:40;;;;;;;9.25;3.10;;;;;;;18.61;42.69;98494.56;4486338;32;20491;-83
2022/09/13 05:58:06;;;;;;;9.90;3.50;;;;;;;19.22;42.48;98485.34;4486130;32;20099;-83
2022/09/13 06:00:32;;;;;;;9.13;3.55;;;;;;;19.35;43.09;98487.66;4486194;32;20107;-83
2022/09/13 06:02:57;;;;;;;9.48;3.30;;;;;;;19.30;43.18;98489.12;4472093;32;20122;-85
2022/09/13 06:05:22;;;;;;;9.35;3.70;;;;;;;19.47;43.44;98493.69;4459129;32;20385;-86
2022/09/13 06:07:48;;;;;;;10.18;3.62;;;;;;;19.53;43.08;98494.91;4486113;32;20076;-88
2022/09/13 06:10:13;;;;;;;9.65;3.80;;;;;;;19.64;43.33;98495.56;4472126;32;20108;-83
2022/09/13 06:12:39;;;;;;;11.60;3.83;;;;;;;19.60;43.73;98496.84;4486268;32;20118;-82
2022/09/13 06:15:05;;;;;;;11.20;4.25;;;;;;;19.57;43.90;98504.34;4473962;31;20092;-83
2022/09/13 06:17:30;;;;;;;11.23;3.40;;;;;;;19.47;43.83;98495.50;4486931;31;20115;-85
2022/09/13 06:19:55;;;;;;;9.82;3.47;;;;;;;19.56;43.33;98503.47;4497223;31;20088;-86
2022/09/13 06:22:21;;;;;;;10.85;3.90;;;;;;;19.67;43.48;98501.63;4501868;31;20096;-85
2022/09/13 06:24:47;;;;;;;11.95;4.60;;;;;;;19.56;44.15;98503.47;4487649;31;20092;-85
2022/09/13 06:27:12;;;;;;;12.30;4.35;;;;;;;19.35;44.14;98505.53;4474443;31;20133;-84
2022/09/13 06:29:38;;;;;;;11.00;3.92;;;;;;;18.85;44.97;98507.50;4501773;31;20490;-85
2022/09/13 06:32:03;;;;;;;11.40;4.50;;;;;;;19.37;44.10;98509.75;4501822;31;20115;-83
2022/09/13 06:34:29;;;;;;;10.80;4.10;;;;;;;19.44;43.82;98510.00;4487394;31;20106;-86
2022/09/13 06:36:54;;;;;;;9.32;2.55;;;;;;;19.34;44.12;98510.03;4479039;31;20080;-83
2022/09/13 06:39:20;;;;;;;7.37;2.60;;;;;;;19.61;42.44;98511.91;4493840;31;20093;-80
2022/09/13 06:41:45;;;;;;;12.50;4.32;;;;;;;19.79;41.02;98503.94;4478026;31;20119;-80
2022/09/13 06:44:11;;;;;;;12.30;3.47;;;;;;;19.92;42.08;98505.44;4491778;31;20092;-83
2022/09/13 06:46:37;;;;;;;10.20;3.42;;;;;;;19.96;42.04;98501.47;4494936;31;20112;-87
2022/09/13 06:49:04;;;;;;;7.95;2.78;;;;;;;20.05;41.84;98508.59;4493400;31;20093;-87
2022/09/13 06:51:31;;;;;;;6.15;2.03;;;;;;;19.72;41.44;98513.56;4473711;31;20459;-85
2022/09/13 06:53:57;;;;;;;6.32;2.00;;;;;;;20.16;38.74;98504.84;4492824;31;20072;-84
2022/09/13 06:56:34;;;;;;;8.00;2.33;;;;;;;19.76;39.42;98506.06;4481214;31;20085;-86
2022/09/13 06:59:03;;;;;;;6.20;2.10;;;;;;;20.16;38.39;98497.66;4473715;32;20192;-82
2022/09/13 07:01:40;;;;;;;7.85;2.15;;;;;;;19.74;39.52;98505.38;4487666;32;20088;-84
2022/09/13 07:04:18;;;;;;;7.03;2.10;;;;;;;20.31;39.08;98510.53;4486733;32;20123;-86
2022/09/13 07:06:46;;;;;;;7.93;2.30;;;;;;;20.14;38.50;98506.84;4487898;32;20080;-86
2022/09/13 07:09:13;;;;;;;6.25;2.03;;;;;;;20.53;37.92;98510.06;4473609;32;20761;-86
2022/09/13 07:11:40;;;;;;;7.53;2.17;;;;;;;20.58;37.85;98517.63;4486421;32;20452;-86
2022/09/13 07:14:06;;;;;;;8.30;2.30;;;;;;;20.66;37.59;98512.34;4486491;32;20477;-86
2022/09/13 07:16:35;;;;;;;6.95;2.28;;;;;;;20.59;37.43;98509.47;4487703;32;20084;-86
2022/09/13 07:19:04;;;;;;;6.80;2.00;;;;;;;20.25;38.28;98514.63;4473546;32;20267;-86
2022/09/13 07:21:31;;;;;;;7.70;2.30;;;;;;;20.17;38.15;98519.91;4486499;32;20459;-86
2022/09/13 07:23:57;;;;;;;5.68;1.85;;;;;;;20.39;37.98;98523.97;4486838;32;20444;-86
2022/09/13 07:26:23;;;;;;;5.72;1.92;;;;;;;20.72;37.08;98517.09;4486466;32;20088;-85
2022/09/13 07:28:51;;;;;;;7.68;1.75;;;;;;;20.74;37.38;98511.59;4487713;32;20171;-86
2022/09/13 07:31:21;;;;;;;6.37;2.00;;;;;;;21.06;36.33;98513.66;4487689;32;20566;-86
2022/09/13 07:33:52;;;;;;;6.68;1.85;;;;;;;20.36;38.09;98521.63;4487983;32;20204;-86
2022/09/13 07:36:18;;;;;;;5.68;2.08;;;;;;;20.73;37.94;98524.13;4473562;32;20464;-85
2022/09/13 07:38:47;;;;;;;7.95;2.15;;;;;;;21.16;36.56;98511.72;4487532;32;20092;-85
2022/09/13 07:41:23;;;;;;;7.80;1.87;;;;;;;21.09;36.19;98515.19;4473258;32;20100;-86
2022/09/13 07:43:48;;;;;;;6.80;2.20;;;;;;;21.22;36.82;98512.94;4487624;32;20143;-86
2022/09/13 07:46:25;;;;;;;6.93;1.85;;;;;;;21.15;36.72;98515.41;4473299;32;20107;-86
2022/09/13 07:48:52;;;;;;;8.70;2.42;;;;;;;21.20;36.10;98520.28;4473397;32;20487;-86
2022/09/13 07:51:29;;;;;;;8.57;2.20;;;;;;;21.12;35.99;98517.56;4486565;32;20105;-85
2022/09/13 07:54:03;;;;;;;7.62;2.00;;;;;;;21.36;36.11;98520.41;4473237;32;20092;-86
2022/09/13 07:56:33;;;;;;;6.93;2.10;;;;;;;21.31;36.29;98525.38;4486325;32;20092;-86
2022/09/13 07:59:00;;;;;;;9.00;2.00;;;;;;;21.36;36.08;98527.56;4487725;32;20746;-85
2022/09/13 08:01:28;;;;;;;7.72;2.15;;;;;;;20.93;36.81;98516.75;4477287;32;227016;-86
2022/09/13 08:04:05;;;;;;;8.88;2.10;;;;;;;21.28;36.57;98509.59;4487600;32;20211;-85
2022/09/13 08:06:32;;;;;;;7.40;2.00;;;;;;;21.47;35.87;98505.06;4487302;32;20085;-86
2022/09/13 08:08:57;;;;;;;12.40;2.30;;;;;;;21.29;36.36;98513.16;4486262;32;20152;-85
2022/09/13 08:11:30;;;;;;;6.25;2.08;;;;;;;21.41;36.46;98504.66;4487457;32;20380;-86
2022/09/13 08:13:55;;;;;;;7.80;2.50;;;;;;;21.65;35.98;98510.31;4473104;32;20111;-86
2022/09/13 08:16:22;;;;;;;7.20;2.00;;;;;;;21.63;35.68;98520.38;4487293;32;20381;-86
2022/09/13 08:18:53;;;;;;;6.97;2.15;;;;;;;21.78;35.48;98519.59;4473014;32;20460;-86
2022/09/13 08:21:19;;;;;;;8.13;2.28;;;;;;;21.63;36.42;98523.06;4487216;32;20096;-86
2022/09/13 08:23:44;;;;;;;8.05;2.28;;;;;;;21.78;36.26;98516.06;4487651;32;20467;-86
2022/09/13 08:26:10;;;;;;;8.15;2.40;;;;;;;21.27;37.28;98524.03;4487538;32;20076;-86
2022/09/13 08:28:37;;;;;;;11.23;2.42;;;;;;;21.02;37.67;98523.84;4487453;32;20118;-86
2022/09/13 08:31:15;;;;;;;7.77;2.90;;;;;;;21.62;36.53;98526.75;4486432;32;20140;-86
2022/09/13 08:33:43;;;;;;;9.18;2.30;;;;;;;21.81;35.83;98523.81;4473674;32;20182;-85
2022/09/13 08:36:08;;;;;;;9.70;2.58;;;;;;;21.69;35.36;98509.00;4473066;32;20080;-86
2022/09/13 08:38:34;;;;;;;7.68;2.50;;;;;;;21.81;35.60;98505.03;4487162;32;20451;-86
2022/09/13 08:41:04;;;;;;;9.18;2.85;;;;;;;22.00;35.43;98514.66;4487220;32;20145;-86
2022/09/13 08:43:33;;;;;;;10.95;2.70;;;;;;;21.59;36.33;98510.00;4487200;32;20528;-86
2022/09/13 08:46:04;;;;;;;9.82;2.78;;;;;;;21.60;36.91;98511.66;4487157;32;20486;-86
2022/09/13 08:48:35;;;;;;;8.57;3.12;;;;;;;21.76;37.17;98513.56;4472989;32;20131;-85
2022/09/13 08:51:06;;;;;;;9.60;2.70;;;;;;;21.84;36.50;98517.28;4487208;32;20165;-86
2022/09/13 08:53:42;;;;;;;7.18;2.60;;;;;;;21.74;36.58;98510.19;4473033;32;20527;-86
2022/09/13 08:56:13;;;;;;;8.95;2.80;;;;;;;21.29;37.79;98518.50;4487175;32;20462;-86
2022/09/13 08:58:51;;;;;;;9.68;2.90;;;;;;;20.83;39.14;98507.97;4486067;32;20105;-85
2022/09/13 09:01:29;;;;;;;9.40;3.20;;;;;;;21.64;37.35;98514.84;4472621;32;20096;-86
2022/09/13 09:04:26;;;;;;;9.48;2.75;;;;;;;21.26;37.32;98521.50;4486993;32;20084;-85
2022/09/13 09:07:05;;;;;;;8.35;2.60;;;;;;;21.43;36.99;98511.72;4482252;32;20081;-85
2022/09/13 09:09:40;;;;;;;8.02;2.92;;;;;;;21.59;37.07;98518.03;4487126;32;20084;-86
2022/09/13 09:12:19;;;;;;;8.50;2.75;;;;;;;21.56;37.59;98514.81;4472744;32;20126;-86
2022/09/13 09:14:54;;;;;;;7.05;2.47;;;;;;;21.72;36.56;98514.87;4487165;32;20097;-86
2022/09/13 09:17:24;;;;;;;7.87;2.67;;;;;;;21.46;37.57;98508.72;4472623;32;20081;-85
2022/09/13 09:20:17;;;;;;;10.63;2.78;;;;;;;21.62;37.39;98508.81;4471653;32;20148;-86
2022/09/13 09:22:43;;;;;;;9.07;2.70;;;;;;;21.84;36.50;98499.34;4472663;32;20108;-86
2022/09/13 09:25:10;;;;;;;8.32;2.50;;;;;;;21.90;36.37;98500.53;4486806;32;20144;-86
2022/09/13 09:27:36;;;;;;;7.30;2.70;;;;;;;21.61;37.30;98493.72;4486891;32;20093;-86
2022/09/13 09:30:01;;;;;;;8.50;2.60;;;;;;;22.07;36.51;98493.38;4486676;32;20112;-85
2022/09/13 09:32:51;;;;;;;9.05;3.03;;;;;;;22.12;36.28;98483.81;4486811;32;20092;-85
2022/09/13 09:36:21;;;;;;;9.52;2.72;;;;;;;22.16;36.60;98485.16;4472702;32;20092;-85
2022/09/13 09:38:47;;;;;;;8.48;2.87;;;;;;;22.40;35.88;98482.72;4361858;32;20470;-86
2022/09/13 09:41:26;;;;;;;8.75;2.62;;;;;;;22.25;36.47;98477.16;4361885;32;20129;-85
2022/09/13 09:43:58;;;;;;;9.15;2.95;;;;;;;22.38;35.63;98480.19;4362112;32;20122;-85
2022/09/13 09:46:28;;;;;;;7.65;2.37;;;;;;;22.42;35.49;98484.22;4362119;32;20141;-86
2022/09/13 09:48:56;;;;;;;9.55;2.40;;;;;;;22.14;36.15;98470.25;4361877;32;20082;-85
2022/09/13 09:51:24;;;;;;;8.52;2.10;;;;;;;22.23;36.07;98487.19;4361949;32;20206;-86
2022/09/13 09:53:55;;;;;;;7.18;2.30;;;;;;;22.23;36.17;98468.41;4362033;32;20127;-86
2022/09/13 09:56:28;;;;;;;7.68;2.33;;;;;;;22.50;35.06;98472.66;4349705;32;20129;-85
2022/09/13 09:58:54;;;;;;;8.40;2.45;;;;;;;22.56;35.11;98448.66;4362105;32;20193;-86
2022/09/13 10:01:23;;;;;;;7.97;2.80;;;;;;;22.73;34.70;98457.53;4361634;32;20162;-86
2022/09/13 10:04:14;;;;;;;7.85;2.50;;;;;;;22.40;35.59;98448.66;4361953;32;20462;-85
2022/09/13 10:06:40;;;;;;;8.70;2.40;;;;;;;22.67;34.50;98441.28;4361867;32;20430;-86
2022/09/13 10:09:20;;;;;;;8.77;2.42;;;;;;;22.59;34.56;98442.12;4361957;32;20121;-85
2022/09/13 10:11:55;;;;;;;8.50;2.80;;;;;;;22.88;34.40;98441.56;4361776;32;20123;-86
2022/09/13 10:14:38;;;;;;;10.43;2.90;;;;;;;22.98;35.38;98446.75;4419955;32;20162;-86
2022/09/13 10:17:24;;;;;;;7.65;2.75;;;;;;;22.92;35.16;98447.44;4453860;32;20100;-86
2022/09/13 10:20:02;;;;;;;8.27;2.70;;;;;;;22.55;35.80;98438.94;4453994;32;20145;-86
2022/09/13 10:22:30;;;;;;;9.90;3.12;;;;;;;23.12;34.86;98440.72;4454065;32;20123;-85
2022/09/13 10:25:16;;;;;;;10.18;3.10;;;;;;;23.38;34.03;98436.09;4454192;32;20456;-85
2022/09/13 10:27:47;;;;;;;11.35;3.28;;;;;;;23.51;36.80;98426.44;4454943;32;20105;-84
2022/09/13 10:30:35;;;;;;;9.52;3.05;;;;;;;23.89;36.95;98423.94;4455781;32;20076;-84
2022/09/13 10:33:01;;;;;;;8.68;3.03;;;;;;;24.01;35.13;98420.81;4456891;32;20093;-84
2022/09/13 10:35:28;;;;;;;8.70;2.90;;;;;;;24.00;34.98;98424.53;4456920;32;20127;-84
2022/09/13 10:37:53;;;;;;;8.93;2.70;;;;;;;23.62;34.08;98424.38;4456756;32;20474;-85
2022/09/13 10:40:29;;;;;;;9.27;2.80;;;;;;;23.97;34.37;98420.34;4456604;32;20077;-85
2022/09/13 10:42:57;;;;;;;8.20;2.70;;;;;;;24.00;34.12;98411.91;4468848;32;20098;-85
2022/09/13 10:45:24;;;;;;;8.68;2.92;;;;;;;23.87;33.25;98407.09;4457011;32;20400;-85
2022/09/13 10:47:53;;;;;;;10.90;3.03;;;;;;;23.65;34.37;98416.78;4468760;32;20152;-85
2022/09/13 10:50:22;;;;;;;8.82;2.60;;;;;;;23.99;33.15;98414.78;4456958;32;20089;-85
2022/09/13 10:52:50;;;;;;;11.45;2.40;;;;;;;23.68;33.76;98420.97;4455543;32;20109;-85
2022/09/13 10:55:18;;;;;;;;;;;;;;;23.53;34.02;98428.97;4457104;32;20165;-85
2022/09/13 10:57:55;;;;;;;6.30;2.10;;;;;;;23.93;33.34;98424.38;4455558;32;19984;-85
2022/09/13 11:00:24;;;;;;;6.87;2.10;;;;;;;23.83;33.57;98424.63;4455378;32;20142;-85
2022/09/13 11:02:55;;;;;;;7.85;2.55;;;;;;;24.11;33.01;98416.88;4479072;32;20144;-85
2022/09/13 11:05:36;;;;;;;5.90;1.92;;;;;;;24.13;32.51;98417.53;4487773;32;20494;-85
2022/09/13 11:08:36;;;;;;;6.68;2.20;;;;;;;24.28;32.51;98408.66;4487961;32;20110;-85
2022/09/13 11:11:27;;;;;;;7.18;2.08;;;;;;;23.44;33.76;98413.88;4473672;32;20130;-85
2022/09/13 11:13:52;;;;;;;7.35;2.10;;;;;;;23.89;33.62;98423.06;4473606;32;20088;-85
2022/09/13 11:17:06;;;;;;;8.43;2.30;;;;;;;23.75;32.84;98414.72;4487750;32;20469;-85
2022/09/13 11:20:09;;;;;;;7.97;2.37;;;;;;;23.75;33.74;98413.88;4481905;32;20092;-85
2022/09/13 11:22:57;;;;;;;5.47;1.92;;;;;;;23.90;33.16;98409.44;4487806;32;20068;-86
2022/09/13 11:25:55;;;;;;;6.28;2.10;;;;;;;23.81;32.89;98413.19;4473520;32;20146;-86
2022/09/13 11:28:37;;;;;;;6.18;2.10;;;;;;;23.90;32.09;98405.94;4473464;32;20088;-86
2022/09/13 11:31:06;;;;;;;6.43;2.12;;;;;;;23.58;31.75;98406.94;4487701;32;20081;-85
2022/09/13 11:34:19;;;;;;;6.18;1.87;;;;;;;23.35;31.65;98407.69;4473397;32;20072;-85
2022/09/13 11:36:57;;;;;;;5.75;2.03;;;;;;;23.37;32.37;98400.28;4470436;32;20092;-86
2022/09/13 11:39:37;;;;;;;5.43;1.70;;;;;;;23.63;32.33;98399.19;4487851;32;20687;-86
2022/09/13 11:42:19;;;;;;;6.60;1.75;;;;;;;24.01;31.50;98396.59;4486893;32;20084;-85
2022/09/13 11:44:59;;;;;;;5.87;2.00;;;;;;;23.62;31.45;98387.56;4473473;32;20484;-85
2022/09/13 11:47:24;;;;;;;4.12;1.70;;;;;;;23.88;31.29;98381.06;4487645;32;20115;-85
2022/09/13 11:49:59;;;;;;;7.18;2.03;;;;;;;23.71;31.26;98372.22;4487583;32;20132;-85
2022/09/13 11:52:56;;;;;;;7.00;1.80;;;;;;;23.57;31.35;98386.44;4487560;32;20083;-85
2022/09/13 11:55:32;;;;;;;7.72;2.00;;;;;;;23.51;32.24;98374.53;4473248;32;20088;-85
2022/09/13 11:58:03;;;;;;;4.85;1.85;;;;;;;23.40;31.71;98375.75;4473249;32;20404;-86